Time;durP1;ratioP1;P1;durP2;ratioP2;P2;SDS_P1;SDS_P2;PMS_P1;PMS_P2;Temp;Humidity;BMP_temperature;BMP_pressure;BME280_temperature;BME280_humidity;BME280_pressure;Samples;Min_cycle;Max_cycle;Signal;HPM_P1;HPM_P2
2022/08/28 00:01:05;;;;;;;3.43;1.67;;;;;;;16.69;100.00;101923.28;5047786;28;20469;-72
2022/08/28 00:03:31;;;;;;;4.67;2.13;;;;;;;16.63;100.00;101949.34;5049483;28;20198;-73
2022/08/28 00:05:58;;;;;;;4.00;2.03;;;;;;;16.07;100.00;101874.06;5050690;28;20422;-72
2022/08/28 00:08:24;;;;;;;3.27;1.80;;;;;;;15.68;100.00;101828.91;5050933;28;20274;-73
2022/08/28 00:10:51;;;;;;;4.90;2.30;;;;;;;16.78;100.00;101951.00;5051620;28;20418;-72
2022/08/28 00:13:20;;;;;;;6.30;2.27;;;;;;;16.92;100.00;101947.22;5028223;28;20442;-73
2022/08/28 00:15:48;;;;;;;5.97;1.80;;;;;;;16.43;100.00;101888.97;5050891;28;20791;-72
2022/08/28 00:18:13;;;;;;;5.20;2.20;;;;;;;16.56;100.00;101935.00;5046438;28;20603;-72
2022/08/28 00:20:39;;;;;;;3.70;2.10;;;;;;;16.58;100.00;101942.94;5050928;28;20945;-72
2022/08/28 00:23:05;;;;;;;3.27;2.03;;;;;;;16.77;100.00;101950.19;5049347;28;20184;-72
2022/08/28 00:25:32;;;;;;;7.13;2.20;;;;;;;16.66;100.00;101951.66;5049901;28;20253;-72
2022/08/28 00:28:00;;;;;;;5.03;2.30;;;;;;;16.59;100.00;101952.69;5050588;28;20515;-72
2022/08/28 00:30:31;;;;;;;5.80;2.10;;;;;;;16.81;100.00;101947.91;5033452;28;20422;-72
2022/08/28 00:33:01;;;;;;;7.67;2.70;;;;;;;16.88;100.00;101944.09;5046839;28;20438;-72
2022/08/28 00:35:26;;;;;;;4.03;1.87;;;;;;;16.01;100.00;101870.31;5050146;28;20536;-73
2022/08/28 00:37:53;;;;;;;4.80;2.13;;;;;;;16.62;100.00;101934.16;5049520;28;20557;-72
2022/08/28 00:40:21;;;;;;;7.57;2.70;;;;;;;16.70;100.00;101946.63;5048441;28;20203;-72
2022/08/28 00:42:47;;;;;;;4.43;2.13;;;;;;;16.32;100.00;101886.94;5050800;28;20430;-72
2022/08/28 00:45:16;;;;;;;6.20;2.80;;;;;;;16.27;100.00;101874.84;5049187;28;20537;-72
2022/08/28 00:47:42;;;;;;;5.07;2.50;;;;;;;15.71;100.00;101828.53;5050789;28;20213;-72
2022/08/28 00:50:10;;;;;;;8.97;2.70;;;;;;;16.14;100.00;101849.69;5050471;28;20820;-72
2022/08/28 00:52:36;;;;;;;4.47;2.40;;;;;;;15.70;100.00;101807.91;5049012;28;20411;-72
2022/08/28 00:55:08;;;;;;;5.70;2.20;;;;;;;16.73;100.00;101940.78;5050557;28;20437;-72
2022/08/28 00:57:43;;;;;;;3.23;2.03;;;;;;;16.63;100.00;101945.81;5049370;28;20504;-73
2022/08/28 01:00:19;;;;;;;5.77;2.33;;;;;;;16.75;100.00;101938.72;5048427;28;20541;-72
2022/08/28 01:02:45;;;;;;;4.27;2.10;;;;;;;16.56;100.00;101885.41;5050392;28;20418;-72
2022/08/28 01:05:12;;;;;;;7.40;2.20;;;;;;;16.70;100.00;101935.81;5050480;28;20426;-72
2022/08/28 01:07:38;;;;;;;3.13;2.07;;;;;;;16.66;100.00;101931.84;5047975;28;20499;-72
2022/08/28 01:10:08;;;;;;;4.60;2.13;;;;;;;16.66;100.00;101943.53;5049878;28;20425;-72
2022/08/28 01:12:34;;;;;;;5.03;1.90;;;;;;;16.66;100.00;101946.25;5049038;28;20186;-72
2022/08/28 01:15:03;;;;;;;4.80;2.23;;;;;;;16.22;100.00;101890.06;5032484;28;20525;-72
2022/08/28 01:17:32;;;;;;;4.63;2.17;;;;;;;16.32;100.00;101925.69;5046990;28;20219;-72
2022/08/28 01:20:05;;;;;;;6.90;1.90;;;;;;;16.40;100.00;101914.63;5050300;28;20950;-72
2022/08/28 01:22:36;;;;;;;5.03;1.93;;;;;;;16.66;100.00;101934.53;5030994;28;20438;-72
2022/08/28 01:25:06;;;;;;;4.87;2.10;;;;;;;16.76;100.00;101932.28;5026890;28;20422;-72
2022/08/28 01:27:32;;;;;;;4.73;2.00;;;;;;;15.55;100.00;101762.13;5047824;28;20473;-72
2022/08/28 01:29:58;;;;;;;3.60;1.97;;;;;;;16.36;100.00;101916.06;5047071;28;21194;-72
2022/08/28 01:32:31;;;;;;;4.93;2.20;;;;;;;16.53;100.00;101929.19;5049377;28;20237;-72
2022/08/28 01:34:57;;;;;;;3.77;2.30;;;;;;;16.57;100.00;101927.69;5050059;28;20189;-72
2022/08/28 01:37:22;;;;;;;4.80;2.33;;;;;;;16.49;100.00;101890.88;5049206;28;20442;-72
2022/08/28 01:39:48;;;;;;;4.87;2.27;;;;;;;16.37;100.00;101906.91;5031557;28;21017;-72
2022/08/28 01:42:13;;;;;;;6.97;2.50;;;;;;;16.13;100.00;101886.75;5049240;28;20240;-72
2022/08/28 01:44:39;;;;;;;3.50;1.87;;;;;;;16.25;100.00;101879.66;5047641;28;20187;-73
2022/08/28 01:47:04;;;;;;;3.13;1.60;;;;;;;16.54;100.00;101926.25;5049926;28;20540;-72
2022/08/28 01:49:29;;;;;;;5.40;2.27;;;;;;;15.82;100.00;101819.75;5047372;28;20190;-72
2022/08/28 01:51:56;;;;;;;3.90;2.00;;;;;;;16.74;100.00;101915.34;5049308;28;20180;-72
2022/08/28 01:54:22;;;;;;;4.73;2.20;;;;;;;16.65;100.00;101897.69;5048192;28;20188;-72
2022/08/28 01:56:47;;;;;;;3.93;1.80;;;;;;;16.68;100.00;101919.75;5031872;28;20440;-72
2022/08/28 01:59:13;;;;;;;4.53;2.13;;;;;;;16.76;100.00;101915.16;5049873;28;20199;-72
2022/08/28 02:01:41;;;;;;;5.97;2.50;;;;;;;16.52;100.00;101924.78;5040135;28;20211;-72
2022/08/28 02:04:06;;;;;;;6.17;2.10;;;;;;;16.25;100.00;101866.09;5031765;28;20274;-72
2022/08/28 02:06:32;;;;;;;8.77;2.20;;;;;;;16.63;100.00;101922.25;5049392;28;21050;-72
2022/08/28 02:08:59;;;;;;;3.60;1.97;;;;;;;16.54;100.00;101928.94;5047701;28;20565;-72
2022/08/28 02:11:28;;;;;;;4.53;2.00;;;;;;;16.10;100.00;101854.69;5048850;28;20426;-72
2022/08/28 02:13:53;;;;;;;4.23;2.10;;;;;;;16.28;100.00;101903.59;5049713;28;20457;-72
2022/08/28 02:16:19;;;;;;;2.50;1.63;;;;;;;16.33;100.00;101938.16;5046083;28;20568;-72
2022/08/28 02:18:45;;;;;;;5.53;1.97;;;;;;;16.39;100.00;101910.25;5030672;28;20207;-72
2022/08/28 02:21:11;;;;;;;5.93;2.37;;;;;;;16.65;100.00;101931.00;5046905;28;20466;-72
2022/08/28 02:23:39;;;;;;;5.00;2.30;;;;;;;16.76;100.00;101937.69;5048402;28;20326;-72
2022/08/28 02:26:05;;;;;;;5.37;2.00;;;;;;;16.43;100.00;101926.88;5047960;28;21379;-72
2022/08/28 02:28:30;;;;;;;5.27;2.47;;;;;;;16.29;100.00;101858.41;5048512;28;20457;-72
2022/08/28 02:30:56;;;;;;;5.47;2.33;;;;;;;16.63;100.00;101937.69;5045677;28;20930;-72
2022/08/28 02:33:21;;;;;;;4.60;1.80;;;;;;;16.60;100.00;101922.69;5040381;28;20213;-73
2022/08/28 02:35:48;;;;;;;9.60;2.40;;;;;;;16.63;100.00;101937.69;5048586;28;20683;-72
2022/08/28 02:38:14;;;;;;;6.43;2.20;;;;;;;16.66;100.00;101935.41;5049413;28;20203;-73
2022/08/28 02:40:40;;;;;;;6.03;2.60;;;;;;;15.94;100.00;101819.94;5048262;28;20838;-72
2022/08/28 02:43:05;;;;;;;8.43;2.70;;;;;;;16.46;100.00;101938.16;5029024;28;20194;-73
2022/08/28 02:45:32;;;;;;;3.47;1.83;;;;;;;16.58;100.00;101926.69;5047436;28;20919;-73
2022/08/28 02:47:57;;;;;;;5.20;2.30;;;;;;;16.41;100.00;101932.53;5048001;28;20752;-73
2022/08/28 02:50:23;;;;;;;7.83;2.20;;;;;;;16.69;100.00;101931.41;5048221;28;20426;-73
2022/08/28 02:52:50;;;;;;;4.67;2.30;;;;;;;16.85;100.00;101919.31;5048067;28;20229;-72
2022/08/28 02:55:17;;;;;;;7.70;2.07;;;;;;;16.30;100.00;101867.38;5048243;28;20176;-72
2022/08/28 02:57:44;;;;;;;5.40;2.50;;;;;;;16.43;100.00;101916.06;5047060;28;20462;-72
2022/08/28 03:00:13;;;;;;;4.20;2.20;;;;;;;16.56;100.00;101923.34;5048050;28;20857;-72
2022/08/28 03:02:40;;;;;;;3.70;1.80;;;;;;;16.43;100.00;101924.19;5047164;28;20517;-72
2022/08/28 03:05:07;;;;;;;4.57;1.90;;;;;;;16.62;100.00;101919.78;5048045;28;20441;-72
2022/08/28 03:07:32;;;;;;;3.57;1.70;;;;;;;16.16;100.00;101844.91;5048040;28;20442;-73
2022/08/28 03:09:57;;;;;;;3.77;1.93;;;;;;;16.55;100.00;101914.38;5048253;28;20425;-72
2022/08/28 03:12:23;;;;;;;5.27;1.87;;;;;;;16.34;100.00;101928.97;5047040;28;20633;-72
2022/08/28 03:14:52;;;;;;;5.17;2.20;;;;;;;16.24;100.00;101920.47;5048454;28;20194;-72
2022/08/28 03:17:18;;;;;;;5.25;1.80;;;;;;;15.97;100.00;101860.13;5048701;28;20679;-72
2022/08/28 03:19:44;;;;;;;9.20;2.13;;;;;;;16.33;100.00;101950.88;5051856;28;20430;-72
2022/08/28 03:22:10;;;;;;;3.30;1.60;;;;;;;15.77;100.00;101874.50;5050070;28;20827;-72
2022/08/28 03:24:36;;;;;;;4.37;2.47;;;;;;;16.40;100.00;101933.59;5050923;28;20191;-72
2022/08/28 03:27:02;;;;;;;4.80;1.90;;;;;;;16.26;100.00;101945.47;5051521;28;20458;-72
2022/08/28 03:29:28;;;;;;;4.73;2.13;;;;;;;16.13;100.00;101929.22;5050922;28;20928;-72
2022/08/28 03:31:54;;;;;;;2.80;1.80;;;;;;;15.88;100.00;101921.75;5040807;28;20468;-72
2022/08/28 03:34:19;;;;;;;4.90;2.00;;;;;;;16.17;100.00;101944.00;5052656;28;20179;-72
2022/08/28 03:36:45;;;;;;;5.70;1.90;;;;;;;16.12;100.00;101943.81;5051121;28;20222;-72
2022/08/28 03:39:11;;;;;;;9.53;2.40;;;;;;;15.53;100.00;101850.72;5052240;28;20180;-72
2022/08/28 03:41:36;;;;;;;4.23;1.87;;;;;;;15.37;100.00;101822.22;5032325;28;20770;-72
2022/08/28 03:44:02;;;;;;;4.87;2.00;;;;;;;15.55;100.00;101832.44;5051010;28;20167;-72
2022/08/28 03:46:32;;;;;;;5.50;2.07;;;;;;;16.62;100.00;101934.16;5049507;28;20199;-72
2022/08/28 03:49:00;;;;;;;4.93;2.00;;;;;;;16.35;100.00;101933.38;5051835;28;20450;-72
2022/08/28 03:51:29;;;;;;;4.53;1.70;;;;;;;15.81;100.00;101864.91;5050170;28;20425;-72
2022/08/28 03:53:58;;;;;;;4.93;2.10;;;;;;;15.84;100.00;101852.84;5051059;28;20414;-72
2022/08/28 03:56:26;;;;;;;5.50;1.87;;;;;;;16.28;100.00;101940.66;5052105;28;20436;-73
2022/08/28 03:58:54;;;;;;;3.00;1.80;;;;;;;16.25;100.00;101950.03;5032310;28;20452;-72
2022/08/28 04:01:20;;;;;;;5.27;1.90;;;;;;;16.30;100.00;101952.13;5048795;28;20470;-72
2022/08/28 04:03:46;;;;;;;4.03;1.60;;;;;;;16.20;100.00;101949.84;5051438;28;20488;-72
2022/08/28 04:06:12;;;;;;;4.40;1.73;;;;;;;16.08;100.00;101948.78;5048991;28;20188;-72
2022/08/28 04:08:37;;;;;;;3.47;2.20;;;;;;;15.88;100.00;101893.84;5033657;28;21022;-72
2022/08/28 04:11:03;;;;;;;4.27;2.00;;;;;;;15.92;100.00;101885.09;5052717;28;20413;-72
2022/08/28 04:13:29;;;;;;;4.57;1.63;;;;;;;15.65;100.00;101870.72;5051626;28;20372;-72
2022/08/28 04:16:06;;;;;;;3.17;1.70;;;;;;;15.25;100.00;101804.97;5049503;28;20171;-72
2022/08/28 04:18:32;;;;;;;3.83;1.80;;;;;;;16.26;100.00;101951.72;5049651;28;21026;-72
2022/08/28 04:21:06;;;;;;;7.00;2.00;;;;;;;16.43;100.00;101968.38;5049400;28;20469;-72
2022/08/28 04:23:32;;;;;;;3.20;1.60;;;;;;;16.10;100.00;101906.13;5051404;28;20653;-73
2022/08/28 04:25:58;;;;;;;5.67;1.97;;;;;;;15.51;100.00;101806.88;5049431;28;20441;-73
2022/08/28 04:28:24;;;;;;;4.77;1.90;;;;;;;15.40;100.00;101783.97;5050468;28;20958;-72
2022/08/28 04:30:55;;;;;;;5.40;1.90;;;;;;;15.47;100.00;101821.81;5051131;28;20183;-72
2022/08/28 04:33:23;;;;;;;4.00;1.83;;;;;;;16.34;100.00;101949.81;5047933;28;20449;-73
2022/08/28 04:35:49;;;;;;;2.87;1.63;;;;;;;15.28;100.00;101835.13;5050962;28;20501;-72
2022/08/28 04:38:14;;;;;;;4.13;1.80;;;;;;;15.57;100.00;101863.63;5048937;28;20537;-73
2022/08/28 04:40:40;;;;;;;3.37;1.97;;;;;;;16.48;100.00;101952.28;5050227;28;20279;-73
2022/08/28 04:43:07;;;;;;;5.03;1.87;;;;;;;16.38;100.00;101959.19;5049881;28;20674;-73
2022/08/28 04:45:37;;;;;;;4.97;1.70;;;;;;;16.01;100.00;101881.13;5050710;28;20603;-73
2022/08/28 04:48:02;;;;;;;3.60;1.80;;;;;;;15.91;100.00;101913.22;5045639;28;22918;-73
2022/08/28 04:50:28;;;;;;;5.87;2.00;;;;;;;16.42;100.00;101965.84;5031128;28;20841;-73
2022/08/28 04:52:53;;;;;;;4.97;2.23;;;;;;;16.07;100.00;101903.00;5049999;28;20229;-73
2022/08/28 04:55:18;;;;;;;2.70;1.60;;;;;;;15.68;100.00;101859.53;5051176;28;20186;-73
2022/08/28 04:57:44;;;;;;;4.20;1.90;;;;;;;16.23;100.00;101970.25;5049946;28;20218;-73
2022/08/28 05:00:10;;;;;;;1.97;1.53;;;;;;;15.29;100.00;101834.06;5050037;28;20699;-73
2022/08/28 05:02:36;;;;;;;2.87;1.63;;;;;;;15.62;100.00;101878.41;5048162;28;20271;-73
2022/08/28 05:05:02;;;;;;;4.73;1.83;;;;;;;15.33;100.00;101829.94;5051238;28;20505;-73
2022/08/28 05:07:28;;;;;;;5.20;1.60;;;;;;;15.30;100.00;101786.25;5048469;28;20203;-73
2022/08/28 05:09:54;;;;;;;3.50;1.80;;;;;;;16.30;100.00;101971.06;5049603;28;20479;-72
2022/08/28 05:12:19;;;;;;;4.70;1.93;;;;;;;16.41;100.00;101967.72;5048713;28;20437;-73
2022/08/28 05:14:44;;;;;;;2.33;1.77;;;;;;;16.35;100.00;101960.44;5050541;28;20204;-73
2022/08/28 05:17:12;;;;;;;3.33;1.50;;;;;;;16.56;100.00;101974.78;5047528;28;20203;-73
2022/08/28 05:19:37;;;;;;;4.23;1.90;;;;;;;16.68;100.00;101978.50;5050222;28;20734;-73
2022/08/28 05:22:03;;;;;;;4.33;2.00;;;;;;;16.45;100.00;101895.84;5048527;28;20457;-73
2022/08/28 05:24:28;;;;;;;5.90;1.97;;;;;;;16.34;100.00;101882.13;5048929;28;20274;-73
2022/08/28 05:26:54;;;;;;;5.77;2.00;;;;;;;16.81;100.00;101975.00;5050347;28;20217;-73
2022/08/28 05:29:19;;;;;;;5.10;1.90;;;;;;;16.94;100.00;101978.47;5050126;28;20377;-73
2022/08/28 05:31:45;;;;;;;6.10;1.70;;;;;;;16.80;100.00;101979.56;5030155;28;20180;-72
2022/08/28 05:34:10;;;;;;;4.43;2.07;;;;;;;16.68;100.00;101957.66;5049648;28;20188;-73
2022/08/28 05:36:37;;;;;;;2.47;1.60;;;;;;;16.48;100.00;101925.22;5049650;28;20180;-72
2022/08/28 05:39:06;;;;;;;2.87;1.73;;;;;;;16.96;100.00;101978.28;5048695;28;20199;-73
2022/08/28 05:41:32;;;;;;;4.10;1.93;;;;;;;17.06;100.00;101981.34;5028370;28;20805;-74
2022/08/28 05:44:00;;;;;;;3.10;1.53;;;;;;;16.45;100.00;101897.72;5046867;28;20833;-74
2022/08/28 05:46:27;;;;;;;4.80;2.37;;;;;;;16.87;100.00;101987.69;5047564;28;20446;-72
2022/08/28 05:48:53;;;;;;;4.37;1.67;;;;;;;16.73;100.00;101978.72;5047863;28;20541;-71
2022/08/28 05:51:20;;;;;;;4.67;1.50;;;;;;;16.11;100.00;101896.94;5042958;28;20442;-73
2022/08/28 05:53:48;;;;;;;2.87;1.67;;;;;;;15.90;100.00;101884.47;5030171;28;20478;-73
2022/08/28 05:56:22;;;;;;;3.33;1.60;;;;;;;15.90;100.00;101921.53;5048799;28;20475;-72
2022/08/28 05:58:48;;;;;;;3.20;1.53;;;;;;;15.91;100.00;101860.94;5029702;28;20877;-73
2022/08/28 06:01:17;;;;;;;3.57;1.43;;;;;;;16.27;100.00;101958.78;5048000;28;20457;-72
2022/08/28 06:03:45;;;;;;;3.87;1.70;;;;;;;16.34;100.00;101975.00;5049128;28;20192;-73
2022/08/28 06:06:11;;;;;;;3.70;1.80;;;;;;;16.03;100.00;101922.38;5027405;28;20434;-72
2022/08/28 06:08:38;;;;;;;5.73;1.70;;;;;;;16.34;100.00;101936.28;5046820;28;20535;-73
2022/08/28 06:11:04;;;;;;;2.40;1.20;;;;;;;16.82;100.00;101991.03;5030924;28;20440;-72
2022/08/28 06:13:30;;;;;;;3.60;1.70;;;;;;;17.10;100.00;101985.31;5048694;28;20437;-72
2022/08/28 06:15:56;;;;;;;2.43;1.43;;;;;;;16.54;100.00;101861.25;5047010;28;20426;-73
2022/08/28 06:18:22;;;;;;;3.30;1.67;;;;;;;17.27;100.00;101985.66;5048419;28;20464;-72
2022/08/28 06:20:48;;;;;;;4.70;1.83;;;;;;;17.39;100.00;101985.81;5048551;28;20200;-73
2022/08/28 06:23:16;;;;;;;2.80;1.43;;;;;;;17.44;100.00;101987.88;5046107;28;21041;-73
2022/08/28 06:25:45;;;;;;;2.33;1.40;;;;;;;16.89;100.00;101893.44;5039404;28;20271;-72
2022/08/28 06:28:13;;;;;;;3.43;1.83;;;;;;;17.66;100.00;101989.22;5047802;28;20481;-72
2022/08/28 06:30:40;;;;;;;4.23;1.93;;;;;;;17.64;100.00;101991.31;5048461;28;20422;-72
2022/08/28 06:33:06;;;;;;;2.13;1.33;;;;;;;17.59;100.00;101991.16;5045836;28;20465;-73
2022/08/28 06:35:33;;;;;;;3.90;1.80;;;;;;;17.57;100.00;101998.66;5049080;28;20437;-73
2022/08/28 06:37:59;;;;;;;3.70;1.63;;;;;;;17.04;100.00;101926.53;5045530;28;20883;-72
2022/08/28 06:40:24;;;;;;;5.03;1.80;;;;;;;17.47;100.00;101984.72;5030798;28;20839;-72
2022/08/28 06:42:50;;;;;;;5.40;2.07;;;;;;;17.56;100.00;102008.69;5048273;28;20434;-73
2022/08/28 06:45:16;;;;;;;4.37;1.60;;;;;;;17.49;100.00;101996.19;5048974;28;20562;-72
2022/08/28 06:47:42;;;;;;;4.70;1.70;;;;;;;17.74;100.00;102026.94;5028196;28;20468;-73
2022/08/28 06:50:08;;;;;;;5.13;1.60;;;;;;;17.15;100.00;101920.44;5047342;28;20691;-73
2022/08/28 06:52:33;;;;;;;4.93;1.90;;;;;;;17.16;100.00;101937.53;5049216;28;20595;-73
2022/08/28 06:54:59;;;;;;;3.73;1.73;;;;;;;16.97;100.00;101928.44;5051832;28;20438;-73
2022/08/28 06:57:25;;;;;;;4.10;1.90;;;;;;;17.46;100.00;101975.75;5052914;28;20207;-73
2022/08/28 06:59:55;;;;;;;2.10;1.27;;;;;;;17.77;100.00;102006.69;5053101;28;20727;-73
2022/08/28 07:02:20;;;;;;;3.90;1.80;;;;;;;17.14;100.00;101912.50;5051274;28;20956;-73
2022/08/28 07:04:52;;;;;;;3.20;1.23;;;;;;;17.53;100.00;101963.00;5053347;28;20429;-73
2022/08/28 07:07:18;;;;;;;4.57;1.37;;;;;;;17.82;100.00;102007.72;5052184;28;20222;-73
2022/08/28 07:09:44;;;;;;;5.43;1.90;;;;;;;17.43;100.00;101950.94;5032991;28;20460;-73
2022/08/28 07:12:13;;;;;;;2.90;1.40;;;;;;;17.27;100.00;101960.41;5049699;28;20751;-73
2022/08/28 07:14:39;;;;;;;3.83;1.57;;;;;;;17.54;100.00;101986.34;5052475;28;20422;-73
2022/08/28 07:17:06;;;;;;;3.40;1.50;;;;;;;18.14;100.00;102009.56;5050900;28;20535;-73
2022/08/28 07:19:32;;;;;;;6.17;1.40;;;;;;;18.19;100.00;102013.28;5052619;28;20210;-72
2022/08/28 07:21:57;;;;;;;3.63;1.70;;;;;;;18.22;100.00;102003.88;5050090;28;20504;-72
2022/08/28 07:24:23;;;;;;;4.30;1.27;;;;;;;18.29;100.00;102020.97;5051878;28;20788;-73
2022/08/28 07:26:48;;;;;;;1.77;1.33;;;;;;;18.28;100.00;102011.13;5049203;28;20183;-73
2022/08/28 07:29:14;;;;;;;5.43;1.90;;;;;;;18.16;100.00;102008.31;5051946;28;20270;-73
2022/08/28 07:31:43;;;;;;;3.20;1.70;;;;;;;17.68;100.00;101922.00;5048192;28;20192;-73
2022/08/28 07:34:11;;;;;;;3.13;1.87;;;;;;;18.28;100.00;102008.41;5050796;28;20196;-73
2022/08/28 07:36:37;;;;;;;4.47;1.90;;;;;;;18.14;100.00;102009.56;5052306;28;20437;-73
2022/08/28 07:39:04;;;;;;;6.90;2.20;;;;;;;18.21;100.00;102022.06;5052250;28;20438;-73
2022/08/28 07:41:31;;;;;;;2.53;1.30;;;;;;;18.30;100.00;102014.47;5050576;28;20497;-72
2022/08/28 07:46:42;;;;;;;2.70;1.43;;;;;;;18.53;100.00;102022.00;5049849;28;20433;-72
2022/08/28 07:49:08;;;;;;;3.00;1.67;;;;;;;18.66;100.00;102024.59;5052280;28;20453;-73
2022/08/28 07:51:34;;;;;;;4.07;1.53;;;;;;;18.52;100.00;102015.75;5049968;28;20454;-73
2022/08/28 07:54:01;;;;;;;3.70;1.60;;;;;;;18.44;100.00;101985.31;5047089;28;20450;-73
2022/08/28 07:56:28;;;;;;;2.10;1.30;;;;;;;18.73;100.00;102013.66;5052102;28;20799;-73
2022/08/28 07:58:57;;;;;;;3.80;1.63;;;;;;;18.53;100.00;102001.09;5050584;28;20441;-74
2022/08/28 08:01:23;;;;;;;3.77;1.77;;;;;;;18.56;100.00;102026.97;5032572;28;20465;-73
2022/08/28 08:03:49;;;;;;;3.30;1.63;;;;;;;18.59;100.00;102002.09;5048972;28;20529;-73
2022/08/28 08:06:15;;;;;;;5.23;1.67;;;;;;;18.97;100.00;102028.28;5048812;28;20449;-73
2022/08/28 08:08:41;;;;;;;4.53;2.20;;;;;;;19.02;100.00;102038.47;5051406;28;20518;-74
2022/08/28 08:11:10;;;;;;;5.97;2.00;;;;;;;18.35;100.00;101967.63;5051496;28;20422;-74
2022/08/28 08:13:37;;;;;;;3.93;1.93;;;;;;;18.93;100.00;102046.94;5050634;28;20430;-73
2022/08/28 08:16:06;;;;;;;5.00;1.77;;;;;;;18.87;100.00;102047.84;5033248;28;21051;-73
2022/08/28 08:18:32;;;;;;;3.90;1.77;;;;;;;18.18;100.00;101935.59;5048445;28;20937;-73
2022/08/28 08:20:58;;;;;;;7.30;2.60;;;;;;;18.65;100.00;102035.69;5049520;28;20526;-73
2022/08/28 08:23:24;;;;;;;4.20;1.90;;;;;;;18.76;100.00;102040.41;5050073;28;20695;-73
2022/08/28 08:25:57;;;;;;;8.30;2.13;;;;;;;18.69;100.00;102064.09;5047895;28;20211;-73
2022/08/28 08:28:23;;;;;;;5.63;2.17;;;;;;;18.73;100.00;102062.56;5051074;28;20519;-73
2022/08/28 08:30:49;;;;;;;5.70;2.60;;;;;;;18.65;100.00;102069.13;5049728;28;20426;-73
2022/08/28 08:33:15;;;;;;;2.57;1.60;;;;;;;18.26;100.00;102041.25;5048834;28;20223;-73
2022/08/28 08:35:40;;;;;;;3.30;1.50;;;;;;;18.31;100.00;102026.97;5050252;28;20184;-73
2022/08/28 08:38:06;;;;;;;3.33;1.80;;;;;;;18.40;100.00;102041.97;5051108;28;20934;-73
2022/08/28 08:40:32;;;;;;;5.57;1.50;;;;;;;17.96;100.00;101943.28;5052126;28;20663;-73
2022/08/28 08:43:01;;;;;;;5.77;2.13;;;;;;;18.23;100.00;101989.25;5032298;28;20184;-73
2022/08/28 08:45:29;;;;;;;8.07;2.30;;;;;;;18.29;100.00;102001.94;5048857;28;20434;-73
2022/08/28 08:47:55;;;;;;;6.27;2.10;;;;;;;18.43;100.00;102076.03;5048291;28;20461;-72
2022/08/28 08:50:33;;;;;;;4.50;1.97;;;;;;;18.55;100.00;102081.56;5050510;28;20487;-73
2022/08/28 08:53:27;;;;;;;2.90;1.60;;;;;;;18.54;100.00;102078.00;5031733;28;20437;-73
2022/08/28 08:55:54;;;;;;;3.63;1.63;;;;;;;18.31;100.00;102037.84;5050219;28;20425;-73
2022/08/28 08:58:38;;;;;;;2.73;1.10;;;;;;;17.89;100.00;101975.09;5050221;28;20913;-73
2022/08/28 09:01:31;;;;;;;2.90;1.50;;;;;;;18.71;100.00;102070.94;5050305;28;20465;-73
2022/08/28 09:04:28;;;;;;;3.83;1.53;;;;;;;18.89;100.00;102055.75;5048733;28;20826;-73
2022/08/28 09:07:07;;;;;;;6.93;1.87;;;;;;;19.07;100.00;102066.66;5049627;28;20430;-73
2022/08/28 09:09:39;;;;;;;4.20;1.70;;;;;;;19.09;100.00;102070.00;5050571;28;20421;-73
2022/08/28 09:12:16;;;;;;;4.87;2.07;;;;;;;18.87;100.00;102072.31;5050120;28;20468;-72
2022/08/28 09:15:15;;;;;;;3.80;1.90;;;;;;;19.10;100.00;102060.78;5047270;28;20433;-73
2022/08/28 09:17:48;;;;;;;3.43;1.63;;;;;;;18.26;100.00;101913.59;5047973;28;20510;-73
2022/08/28 09:20:29;;;;;;;5.37;1.83;;;;;;;19.02;100.00;102071.94;5048432;28;20434;-72
2022/08/28 09:22:55;;;;;;;4.73;1.77;;;;;;;18.93;100.00;102065.13;5047206;28;20470;-73
2022/08/28 09:25:50;;;;;;;5.17;1.57;;;;;;;18.93;100.00;102089.59;5048410;28;20511;-73
2022/08/28 09:28:18;;;;;;;3.23;1.80;;;;;;;19.20;100.00;102085.53;5049198;28;20250;-73
2022/08/28 09:30:53;;;;;;;3.70;1.80;;;;;;;19.31;100.00;102074.97;5049256;28;20516;-73
2022/08/28 09:33:38;;;;;;;4.30;2.17;;;;;;;18.49;100.00;101993.63;5049054;28;20889;-73
2022/08/28 09:36:34;;;;;;;4.17;1.93;;;;;;;18.95;100.00;102073.91;5050174;28;20932;-73
2022/08/28 09:39:06;;;;;;;2.57;1.80;;;;;;;18.96;100.00;102084.53;5050454;28;20903;-73
2022/08/28 09:44:18;;;;;;;3.53;1.57;;;;;;;18.37;100.00;101971.81;5049130;28;20860;-73
2022/08/28 09:46:50;;;;;;;2.57;1.13;;;;;;;19.07;100.00;102090.31;5050153;28;20509;-73
2022/08/28 09:49:29;;;;;;;5.60;1.90;;;;;;;19.14;100.00;102096.50;5045043;28;20191;-73
2022/08/28 09:52:00;;;;;;;4.60;2.27;;;;;;;19.27;100.00;102090.09;5049696;28;20426;-74
2022/08/28 09:54:39;;;;;;;5.27;1.90;;;;;;;19.33;100.00;102095.47;5049666;28;20529;-73
2022/08/28 09:57:04;;;;;;;2.83;2.00;;;;;;;19.56;100.00;102083.06;5049019;28;20496;-74
2022/08/28 09:59:30;;;;;;;2.80;1.90;;;;;;;19.47;100.00;102049.03;5049270;28;20837;-73
2022/08/28 10:02:18;;;;;;;4.90;2.30;;;;;;;19.63;100.00;102089.22;5046991;28;20231;-74
2022/08/28 10:04:52;;;;;;;2.63;1.70;;;;;;;19.85;100.00;102082.28;5047705;28;20523;-74
2022/08/28 10:07:29;;;;;;;3.00;1.73;;;;;;;19.58;100.00;102002.00;5048311;28;20447;-73
2022/08/28 10:10:08;;;;;;;3.73;2.03;;;;;;;20.09;100.00;102080.47;5025231;28;20681;-74
2022/08/28 10:12:39;;;;;;;4.87;1.90;;;;;;;20.25;100.00;102080.84;5024950;28;20446;-73
2022/08/28 10:15:23;;;;;;;5.13;2.20;;;;;;;20.32;100.00;102087.03;5045015;28;20474;-74
2022/08/28 10:18:23;;;;;;;4.67;1.83;;;;;;;19.69;100.00;102016.75;5044617;28;20462;-75
2022/08/28 10:21:01;;;;;;;2.77;1.60;;;;;;;20.12;100.00;102087.34;5046192;28;20461;-74
2022/08/28 10:23:26;;;;;;;4.03;1.87;;;;;;;19.97;100.00;102089.66;5047024;28;20441;-74
2022/08/28 10:26:00;;;;;;;6.20;2.60;;;;;;;19.81;100.00;102083.78;5048010;28;21064;-74
2022/08/28 10:28:40;;;;;;;4.13;1.97;;;;;;;19.43;100.00;102019.56;5047776;28;20264;-74
2022/08/28 10:31:40;;;;;;;7.60;2.53;;;;;;;19.30;100.00;102059.72;5027946;28;20809;-74
2022/08/28 10:34:49;;;;;;;4.90;2.20;;;;;;;19.32;100.00;102065.75;5045675;28;20435;-74
2022/08/28 10:37:52;;;;;;;3.63;1.70;;;;;;;19.76;100.00;102108.16;5003699;28;20455;-74
2022/08/28 10:40:25;;;;;;;3.37;1.60;;;;;;;20.03;100.00;102094.19;5049644;28;20406;-75
2022/08/28 10:43:00;;;;;;;2.27;1.40;;;;;;;19.55;100.00;101997.00;5036555;28;20792;-74
2022/08/28 10:45:29;;;;;;;4.23;1.57;;;;;;;19.59;100.00;102083.44;5047661;28;20434;-74
2022/08/28 10:47:59;;;;;;;6.93;1.90;;;;;;;19.68;100.00;102061.38;5049117;28;20457;-74
2022/08/28 10:50:28;;;;;;;4.27;2.03;;;;;;;20.00;100.00;102097.38;5046517;28;20441;-75
2022/08/28 10:53:05;;;;;;;3.80;1.87;;;;;;;20.31;100.00;102088.94;5041169;28;20804;-75
2022/08/28 10:55:37;;;;;;;3.07;2.10;;;;;;;20.33;100.00;102080.50;5048562;28;20421;-74
2022/08/28 10:58:06;;;;;;;4.70;1.80;;;;;;;19.83;100.00;101994.53;5047133;28;20485;-74
2022/08/28 11:00:33;;;;;;;3.77;2.17;;;;;;;20.13;100.00;102060.91;5047522;28;20470;-75
2022/08/28 11:03:14;;;;;;;4.40;2.20;;;;;;;19.91;100.00;102088.69;5030934;28;20810;-74
2022/08/28 11:06:00;;;;;;;3.90;2.10;;;;;;;20.03;100.00;102067.78;5045474;28;20733;-74
2022/08/28 11:08:35;;;;;;;5.03;2.07;;;;;;;19.96;100.00;102098.88;5048293;28;20812;-74
2022/08/28 11:11:05;;;;;;;4.83;2.37;;;;;;;20.12;100.00;102095.50;5048304;28;20422;-74
2022/08/28 11:13:46;;;;;;;3.17;2.10;;;;;;;20.29;100.00;102084.78;5048932;28;20421;-75
2022/08/28 11:16:32;;;;;;;4.20;2.17;;;;;;;20.70;100.00;102096.72;5048456;28;20507;-74
2022/08/28 11:19:06;;;;;;;4.37;2.00;;;;;;;20.71;100.00;102091.03;5030589;28;20446;-74
2022/08/28 11:21:41;;;;;;;5.93;2.20;;;;;;;20.69;100.00;102092.34;5045583;28;20472;-75
2022/08/28 11:24:42;;;;;;;4.03;2.50;;;;;;;20.72;100.00;102049.06;5048617;28;20829;-74
2022/08/28 11:27:29;;;;;;;4.23;2.40;;;;;;;20.87;100.00;102118.66;5047038;28;20503;-74
2022/08/28 11:29:59;;;;;;;2.87;2.07;;;;;;;20.86;100.00;102079.66;5021411;28;20433;-74
2022/08/28 11:32:30;;;;;;;3.93;2.63;;;;;;;20.45;100.00;102089.56;5047445;28;20925;-74